Time;durP1;ratioP1;P1;durP2;ratioP2;P2;SDS_P1;SDS_P2;PMS_P1;PMS_P2;Temp;Humidity;BMP_temperature;BMP_pressure;BME280_temperature;BME280_humidity;BME280_pressure;Samples;Min_cycle;Max_cycle;Signal;HPM_P1;HPM_P2
2023/01/22 00:01:02;;;;;;;;;1.00;1.00;;;;;;;;5052006;28;11448;-67
2023/01/22 00:03:27;;;;;;;;;3.00;3.00;;;;;;;;5050953;28;8806;-68
2023/01/22 00:05:53;;;;;;;;;2.33;2.33;;;;;;;;5052009;28;8942;-67
2023/01/22 00:08:18;;;;;;;;;1.67;1.00;;;;;;;;5050644;28;8810;-69
2023/01/22 00:10:47;;;;;;;;;1.00;1.00;;;;;;;;5050668;28;8818;-69
2023/01/22 00:13:13;;;;;;;;;1.00;1.00;;;;;;;;5052048;28;9494;-68
2023/01/22 00:15:38;;;;;;;;;1.00;1.00;;;;;;;;5051796;28;11461;-68
2023/01/22 00:18:03;;;;;;;;;4.00;0.00;;;;;;;;5052241;28;9635;-68
2023/01/22 00:20:28;;;;;;;;;1.00;1.00;;;;;;;;5051942;28;8802;-68
2023/01/22 00:22:54;;;;;;;;;4.00;0.00;;;;;;;;5051825;28;8790;-68
2023/01/22 00:25:19;;;;;;;;;6.00;1.00;;;;;;;;5051626;28;8851;-69
2023/01/22 00:27:44;;;;;;;;;1.00;1.00;;;;;;;;5050231;28;9547;-67
2023/01/22 00:30:10;;;;;;;;;1.00;1.00;;;;;;;;5050570;28;8803;-68
2023/01/22 00:32:35;;;;;;;;;3.00;3.00;;;;;;;;5051862;28;8841;-68
2023/01/22 00:35:00;;;;;;;;;0.33;0.33;;;;;;;;5051658;28;8811;-68
2023/01/22 00:37:25;;;;;;;;;3.67;1.00;;;;;;;;5050888;28;9583;-67
2023/01/22 00:39:51;;;;;;;;;2.33;2.33;;;;;;;;5050118;28;8826;-67
2023/01/22 00:42:16;;;;;;;;;1.00;1.00;;;;;;;;5051480;28;8791;-68
2023/01/22 00:44:41;;;;;;;;;3.00;0.67;;;;;;;;5051252;28;8954;-68
2023/01/22 00:47:07;;;;;;;;;1.00;0.67;;;;;;;;5051475;28;8794;-68
2023/01/22 00:49:32;;;;;;;;;3.33;2.33;;;;;;;;5051295;28;8811;-68
2023/01/22 00:51:57;;;;;;;;;4.33;1.00;;;;;;;;5051271;28;8799;-68
2023/01/22 00:54:22;;;;;;;;;1.00;1.00;;;;;;;;5051186;28;9868;-68
2023/01/22 00:56:48;;;;;;;;;3.00;3.00;;;;;;;;5051102;28;8822;-68
2023/01/22 00:59:13;;;;;;;;;0.67;0.67;;;;;;;;5051308;28;8976;-67
2023/01/22 01:01:38;;;;;;;;;1.00;1.00;;;;;;;;5050414;28;8829;-67
2023/01/22 01:04:04;;;;;;;;;1.00;1.00;;;;;;;;5051026;28;8853;-69
2023/01/22 01:06:29;;;;;;;;;0.67;0.67;;;;;;;;5050969;28;8825;-68
2023/01/22 01:08:55;;;;;;;;;1.00;1.00;;;;;;;;5051121;28;8803;-68
2023/01/22 01:11:21;;;;;;;;;2.00;0.00;;;;;;;;5051017;28;8853;-68
2023/01/22 01:13:46;;;;;;;;;1.00;0.00;;;;;;;;5050787;28;8829;-68
2023/01/22 01:16:13;;;;;;;;;0.00;0.00;;;;;;;;5050919;28;11437;-68
2023/01/22 01:18:39;;;;;;;;;1.00;1.00;;;;;;;;5051094;28;8892;-67
2023/01/22 01:21:06;;;;;;;;;0.00;0.00;;;;;;;;5050657;28;11418;-68
2023/01/22 01:23:32;;;;;;;;;0.00;0.00;;;;;;;;5050775;28;8969;-68
2023/01/22 01:25:57;;;;;;;;;0.67;0.67;;;;;;;;5050258;28;11459;-68
2023/01/22 01:28:23;;;;;;;;;2.00;0.00;;;;;;;;5050731;28;8799;-67
2023/01/22 01:30:49;;;;;;;;;1.00;1.00;;;;;;;;5050701;28;9024;-68
2023/01/22 01:33:14;;;;;;;;;1.00;1.00;;;;;;;;5050627;28;11643;-67
2023/01/22 01:35:39;;;;;;;;;0.00;0.00;;;;;;;;5050745;28;8861;-67
2023/01/22 01:38:05;;;;;;;;;0.00;0.00;;;;;;;;5050429;28;8798;-67
2023/01/22 01:40:30;;;;;;;;;0.00;0.00;;;;;;;;5050563;28;8938;-68
2023/01/22 01:42:56;;;;;;;;;0.00;0.00;;;;;;;;5050405;28;9560;-69
2023/01/22 01:45:21;;;;;;;;;0.67;0.00;;;;;;;;5050444;28;8830;-68
2023/01/22 01:48:13;;;;;;;;;0.67;0.00;;;;;;;;5049927;28;8819;-68
2023/01/22 01:50:39;;;;;;;;;0.67;0.67;;;;;;;;5049123;28;8823;-67
2023/01/22 01:53:05;;;;;;;;;0.67;0.00;;;;;;;;5050481;28;8803;-67
2023/01/22 01:56:50;;;;;;;;;1.33;1.33;;;;;;;;5083689;27;13402;-67
2023/01/22 01:59:17;;;;;;;;;2.00;1.00;;;;;;;;5086648;28;9684;-68
2023/01/22 02:01:43;;;;;;;;;1.00;1.00;;;;;;;;5086643;28;11443;-67
2023/01/22 02:04:09;;;;;;;;;0.00;0.00;;;;;;;;5085275;28;11466;-67
2023/01/22 02:06:34;;;;;;;;;1.00;0.00;;;;;;;;5086749;28;8832;-68
2023/01/22 02:09:00;;;;;;;;;0.00;0.00;;;;;;;;5086831;28;8792;-68
2023/01/22 02:11:26;;;;;;;;;1.00;1.00;;;;;;;;5085457;28;8836;-68
2023/01/22 02:13:54;;;;;;;;;2.00;1.00;;;;;;;;5086439;28;8809;-68
2023/01/22 02:16:20;;;;;;;;;0.00;0.00;;;;;;;;5086342;28;11449;-68
2023/01/22 02:18:48;;;;;;;;;0.00;0.00;;;;;;;;5087016;28;11483;-68
2023/01/22 02:21:30;;;;;;;;;1.00;1.00;;;;;;;;5086435;28;9445;-69
2023/01/22 02:23:56;;;;;;;;;1.00;0.33;;;;;;;;5086397;28;11550;-68
2023/01/22 02:26:21;;;;;;;;;0.67;0.00;;;;;;;;5085948;28;11452;-66
2023/01/22 02:28:50;;;;;;;;;1.00;1.00;;;;;;;;5086283;28;8831;-67
2023/01/22 02:31:15;;;;;;;;;0.00;0.00;;;;;;;;5086118;28;8786;-67
2023/01/22 02:33:40;;;;;;;;;0.00;0.00;;;;;;;;5084926;28;11446;-67
2023/01/22 02:36:06;;;;;;;;;1.00;0.00;;;;;;;;5085918;28;8925;-67
2023/01/22 02:38:31;;;;;;;;;0.33;0.00;;;;;;;;5086093;28;8845;-67
2023/01/22 02:40:57;;;;;;;;;0.00;0.00;;;;;;;;5085827;28;8806;-67
2023/01/22 02:43:23;;;;;;;;;0.00;0.00;;;;;;;;5085907;28;8895;-67
2023/01/22 02:45:48;;;;;;;;;0.00;0.00;;;;;;;;5085978;28;8802;-67
2023/01/22 02:48:14;;;;;;;;;0.00;0.00;;;;;;;;5085833;28;8802;-67
2023/01/22 02:50:40;;;;;;;;;0.00;0.00;;;;;;;;5085745;28;8799;-67
2023/01/22 02:53:05;;;;;;;;;0.00;0.00;;;;;;;;5084237;28;11463;-67
2023/01/22 02:55:30;;;;;;;;;1.00;0.00;;;;;;;;5095176;28;8890;-67
2023/01/22 02:57:55;;;;;;;;;0.00;0.00;;;;;;;;5106096;28;8782;-67
2023/01/22 03:00:21;;;;;;;;;0.00;0.00;;;;;;;;5105731;28;8929;-67
2023/01/22 03:02:46;;;;;;;;;0.00;0.00;;;;;;;;5087580;28;8802;-67
2023/01/22 03:05:11;;;;;;;;;0.00;0.00;;;;;;;;5105866;28;8801;-68
2023/01/22 03:07:43;;;;;;;;;0.00;0.00;;;;;;;;5076709;28;8949;-67
2023/01/22 03:10:13;;;;;;;;;1.00;0.00;;;;;;;;5092517;28;8818;-68
2023/01/22 03:23:34;;;;;;;;;0.00;0.00;;;;;;;;5091967;28;11408;-68
2023/01/22 03:25:59;;;;;;;;;0.00;0.00;;;;;;;;5091626;28;11485;-69
2023/01/22 03:28:25;;;;;;;;;0.00;0.00;;;;;;;;5091869;28;8786;-69
2023/01/22 03:30:51;;;;;;;;;0.00;0.00;;;;;;;;5091646;28;8816;-68
2023/01/22 03:33:16;;;;;;;;;0.00;0.00;;;;;;;;5091765;28;8770;-68
2023/01/22 03:35:42;;;;;;;;;0.00;0.00;;;;;;;;5092029;28;8798;-68
2023/01/22 03:38:07;;;;;;;;;0.00;0.00;;;;;;;;5091742;28;8810;-68
2023/01/22 03:40:32;;;;;;;;;0.00;0.00;;;;;;;;5091763;28;8778;-68
2023/01/22 03:42:57;;;;;;;;;0.00;0.00;;;;;;;;5091576;28;9605;-68
2023/01/22 03:45:23;;;;;;;;;0.00;0.00;;;;;;;;5073377;28;8782;-68
2023/01/22 03:47:50;;;;;;;;;0.00;0.00;;;;;;;;5091417;28;8832;-68
2023/01/22 03:50:15;;;;;;;;;0.00;0.00;;;;;;;;5091373;28;8810;-68
2023/01/22 03:52:40;;;;;;;;;0.00;0.00;;;;;;;;5091308;28;8878;-68
2023/01/22 03:55:06;;;;;;;;;0.00;0.00;;;;;;;;5091197;28;8916;-68
2023/01/22 03:57:31;;;;;;;;;0.00;0.00;;;;;;;;5091283;28;8817;-68
2023/01/22 04:00:00;;;;;;;;;0.00;0.00;;;;;;;;5091222;28;8817;-68
2023/01/22 04:02:26;;;;;;;;;0.00;0.00;;;;;;;;5091246;28;9027;-68
2023/01/22 04:04:51;;;;;;;;;0.00;0.00;;;;;;;;5091442;28;8817;-68
2023/01/22 04:07:16;;;;;;;;;0.00;0.00;;;;;;;;5091278;28;8825;-68
2023/01/22 04:09:42;;;;;;;;;0.00;0.00;;;;;;;;5091040;28;9703;-68
2023/01/22 04:12:07;;;;;;;;;0.00;0.00;;;;;;;;5091136;28;8801;-68
2023/01/22 04:14:32;;;;;;;;;0.00;0.00;;;;;;;;5072778;28;9560;-69
2023/01/22 04:16:57;;;;;;;;;0.00;0.00;;;;;;;;5072682;28;8798;-69
2023/01/22 04:19:23;;;;;;;;;0.00;0.00;;;;;;;;5072347;28;8920;-67
2023/01/22 04:21:48;;;;;;;;;0.00;0.00;;;;;;;;5072565;28;8840;-67
2023/01/22 04:24:13;;;;;;;;;0.00;0.00;;;;;;;;5090755;28;8778;-68
2023/01/22 04:26:38;;;;;;;;;0.00;0.00;;;;;;;;5090474;28;8943;-67
2023/01/22 04:29:04;;;;;;;;;0.00;0.00;;;;;;;;5090515;28;8801;-67
2023/01/22 04:31:29;;;;;;;;;0.00;0.00;;;;;;;;5090637;28;8796;-67
2023/01/22 04:33:54;;;;;;;;;0.00;0.00;;;;;;;;5090502;28;8786;-67
2023/01/22 04:36:20;;;;;;;;;0.00;0.00;;;;;;;;5090343;28;8856;-67
2023/01/22 04:38:45;;;;;;;;;0.00;0.00;;;;;;;;5090377;28;9562;-66
2023/01/22 04:41:10;;;;;;;;;0.00;0.00;;;;;;;;5090486;28;8878;-67
2023/01/22 04:43:35;;;;;;;;;0.00;0.00;;;;;;;;5090333;28;8794;-68
2023/01/22 04:46:01;;;;;;;;;0.00;0.00;;;;;;;;5090376;28;8797;-67
2023/01/22 04:48:26;;;;;;;;;0.00;0.00;;;;;;;;5090349;28;8801;-67
2023/01/22 04:50:51;;;;;;;;;0.00;0.00;;;;;;;;5090307;28;8854;-67
2023/01/22 04:53:16;;;;;;;;;0.00;0.00;;;;;;;;5090109;28;8812;-67
2023/01/22 04:55:42;;;;;;;;;0.00;0.00;;;;;;;;5090131;28;8834;-67
2023/01/22 04:58:08;;;;;;;;;0.00;0.00;;;;;;;;5090190;28;8821;-68
2023/01/22 05:00:33;;;;;;;;;0.00;0.00;;;;;;;;5090129;28;8802;-68
2023/01/22 05:02:59;;;;;;;;;0.00;0.00;;;;;;;;5090266;28;8790;-68
2023/01/22 05:05:25;;;;;;;;;0.00;0.00;;;;;;;;5090123;28;8794;-68
2023/01/22 05:07:50;;;;;;;;;0.00;0.00;;;;;;;;5089981;28;8831;-67
2023/01/22 05:10:16;;;;;;;;;0.00;0.00;;;;;;;;5071631;28;8821;-68
2023/01/22 05:12:41;;;;;;;;;0.00;0.00;;;;;;;;5089961;28;8790;-67
2023/01/22 05:15:07;;;;;;;;;0.00;0.00;;;;;;;;5071345;28;9065;-68
2023/01/22 05:17:32;;;;;;;;;0.00;0.00;;;;;;;;5090187;28;8794;-67
2023/01/22 05:19:57;;;;;;;;;0.00;0.00;;;;;;;;5089677;28;8818;-67
2023/01/22 05:22:23;;;;;;;;;0.00;0.00;;;;;;;;5089716;28;8798;-67
2023/01/22 05:24:48;;;;;;;;;0.00;0.00;;;;;;;;5071315;28;8817;-67
2023/01/22 05:27:13;;;;;;;;;0.00;0.00;;;;;;;;5089726;28;8801;-68
2023/01/22 05:29:38;;;;;;;;;0.00;0.00;;;;;;;;5071138;28;8833;-68
2023/01/22 05:32:04;;;;;;;;;0.00;0.00;;;;;;;;5089637;28;8798;-67
2023/01/22 05:34:29;;;;;;;;;0.00;0.00;;;;;;;;5089456;28;8802;-67
2023/01/22 05:36:54;;;;;;;;;0.00;0.00;;;;;;;;5089556;28;8793;-67
2023/01/22 05:39:20;;;;;;;;;0.00;0.00;;;;;;;;5089554;28;8836;-67
2023/01/22 05:41:45;;;;;;;;;0.00;0.00;;;;;;;;5089515;28;9609;-67
2023/01/22 05:44:12;;;;;;;;;0.00;0.00;;;;;;;;5089444;28;8855;-68
2023/01/22 05:46:37;;;;;;;;;0.00;0.00;;;;;;;;5089436;28;8814;-68
2023/01/22 05:49:02;;;;;;;;;0.00;0.00;;;;;;;;5089399;28;9608;-67
2023/01/22 05:51:28;;;;;;;;;0.00;0.00;;;;;;;;5089392;28;8813;-68
2023/01/22 11:17:21;;;;;;;;;1.75;1.75;;;;;;;;5112355;27;13435;-66
2023/01/22 11:19:53;;;;;;;;;2.00;1.00;;;;;;;;5100820;28;11473;-67
2023/01/22 11:22:21;;;;;;;;;0.50;0.00;;;;;;;;5106524;28;11449;-64
2023/01/22 11:24:47;;;;;;;;;1.25;0.00;;;;;;;;5106512;28;11508;-67
2023/01/22 11:27:12;;;;;;;;;;;;;;;;;;5107664;28;11487;-66
2023/01/22 11:29:47;;;;;;;;;1.50;1.50;;;;;;;;5097034;28;7602;-67
2023/01/22 11:32:12;;;;;;;;;;;;;;;;;;5097306;28;8955;-67
2023/01/22 11:34:37;;;;;;;;;0.20;0.20;;;;;;;;5085265;28;8814;-67
2023/01/22 11:37:14;;;;;;;;;0.25;0.25;;;;;;;;5094252;28;8836;-66
2023/01/22 11:39:59;;;;;;;;;1.25;1.00;;;;;;;;5092915;28;8890;-67
2023/01/22 11:42:25;;;;;;;;;1.00;1.00;;;;;;;;5094043;28;10107;-67
2023/01/22 11:44:54;;;;;;;;;1.00;1.00;;;;;;;;5093752;28;9775;-67
2023/01/22 11:47:19;;;;;;;;;1.00;1.00;;;;;;;;5092106;28;8937;-68
2023/01/22 11:49:51;;;;;;;;;2.00;1.00;;;;;;;;5095538;28;9598;-67
2023/01/22 11:52:32;;;;;;;;;1.00;1.00;;;;;;;;5095219;28;9713;-67
2023/01/22 11:55:20;;;;;;;;;2.50;1.00;;;;;;;;5095992;28;9694;-68
2023/01/22 11:57:51;;;;;;;;;0.75;0.75;;;;;;;;5077717;28;10055;-67
2023/01/22 12:00:24;;;;;;;;;0.50;0.50;;;;;;;;5094253;28;10253;-67
2023/01/22 12:03:11;;;;;;;;;0.00;0.00;;;;;;;;5102464;28;10617;-67
2023/01/22 12:05:51;;;;;;;;;2.25;2.00;;;;;;;;5105690;28;10462;-67
2023/01/22 12:08:19;;;;;;;;;2.50;2.50;;;;;;;;5084265;28;10891;-67
2023/01/22 12:10:48;;;;;;;;;1.00;1.00;;;;;;;;5085034;28;11367;-67
2023/01/22 12:13:25;;;;;;;;;1.00;1.00;;;;;;;;5084991;28;11053;-67
2023/01/22 12:16:13;;;;;;;;;1.00;1.00;;;;;;;;5084469;28;11537;-67
2023/01/22 12:18:39;;;;;;;;;1.00;1.00;;;;;;;;5082482;28;11385;-65
2023/01/22 12:21:25;;;;;;;;;2.00;2.00;;;;;;;;5092688;28;11505;-65
2023/01/22 12:23:57;;;;;;;;;0.75;0.75;;;;;;;;5094452;28;8802;-66
2023/01/22 12:26:25;;;;;;;;;0.00;0.00;;;;;;;;5091607;28;11402;-65
2023/01/22 12:29:02;;;;;;;;;0.25;0.25;;;;;;;;5079994;28;11419;-65
2023/01/22 12:31:30;;;;;;;;;0.00;0.00;;;;;;;;5080711;28;11482;-66
2023/01/22 12:33:58;;;;;;;;;0.50;0.50;;;;;;;;5079709;28;11549;-65
2023/01/22 12:36:24;;;;;;;;;0.00;0.00;;;;;;;;5080987;28;11405;-65
2023/01/22 12:38:49;;;;;;;;;1.00;0.00;;;;;;;;5078528;28;12166;-66
2023/01/22 12:41:14;;;;;;;;;0.00;0.00;;;;;;;;5081928;28;11493;-66
2023/01/22 12:43:49;;;;;;;;;0.00;0.00;;;;;;;;5079810;28;8909;-66
2023/01/22 12:46:14;;;;;;;;;0.00;0.00;;;;;;;;5079646;28;8808;-66
2023/01/22 12:48:42;;;;;;;;;0.00;0.00;;;;;;;;5082660;28;11490;-66
2023/01/22 12:51:25;;;;;;;;;0.00;0.00;;;;;;;;5081105;28;8842;-66
2023/01/22 12:53:50;;;;;;;;;0.00;0.00;;;;;;;;5079976;28;11448;-66
2023/01/22 12:56:26;;;;;;;;;0.00;0.00;;;;;;;;5079450;28;11470;-66
2023/01/22 12:58:55;;;;;;;;;1.50;0.25;;;;;;;;5077989;28;8796;-66
2023/01/22 13:01:21;;;;;;;;;0.00;0.00;;;;;;;;5081599;28;11475;-66
2023/01/22 13:03:56;;;;;;;;;0.00;0.00;;;;;;;;5080075;28;11517;-65
2023/01/22 13:06:35;;;;;;;;;0.00;0.00;;;;;;;;5076687;28;11462;-66
2023/01/22 13:09:01;;;;;;;;;0.00;0.00;;;;;;;;5068883;28;11474;-66
2023/01/22 13:11:28;;;;;;;;;0.00;0.00;;;;;;;;5070824;28;11434;-66
2023/01/22 13:13:56;;;;;;;;;33.00;31.00;;;;;;;;5069113;28;11458;-65
2023/01/22 13:16:27;;;;;;;;;44.00;36.67;;;;;;;;5069873;28;11653;-66
2023/01/22 13:18:54;;;;;;;;;0.00;0.00;;;;;;;;5071302;28;8905;-67
2023/01/22 13:21:24;;;;;;;;;0.00;0.00;;;;;;;;5070999;28;11415;-65
2023/01/22 13:23:49;;;;;;;;;0.00;0.00;;;;;;;;5069859;28;11460;-67
2023/01/22 13:26:23;;;;;;;;;0.00;0.00;;;;;;;;5070445;28;11443;-67
2023/01/22 13:28:49;;;;;;;;;0.00;0.00;;;;;;;;5070454;28;9106;-65
2023/01/22 13:31:15;;;;;;;;;0.00;0.00;;;;;;;;5070169;28;11424;-66
2023/01/22 13:33:50;;;;;;;;;0.00;0.00;;;;;;;;5070338;28;12228;-66
2023/01/22 13:36:16;;;;;;;;;0.00;0.00;;;;;;;;5070275;28;8895;-66
2023/01/22 13:38:49;;;;;;;;;0.00;0.00;;;;;;;;5070764;28;11419;-67
2023/01/22 13:41:20;;;;;;;;;0.00;0.00;;;;;;;;5070019;28;8840;-66
2023/01/22 13:43:46;;;;;;;;;0.00;0.00;;;;;;;;5068843;28;11447;-71
2023/01/22 13:46:12;;;;;;;;;0.00;0.00;;;;;;;;5070304;28;11506;-67
2023/01/22 13:48:37;;;;;;;;;0.00;0.00;;;;;;;;5070077;28;8814;-67
2023/01/22 13:51:13;;;;;;;;;0.00;0.00;;;;;;;;5070147;28;11425;-68
2023/01/22 13:53:38;;;;;;;;;0.00;0.00;;;;;;;;5069908;28;8942;-69
2023/01/22 13:56:04;;;;;;;;;0.00;0.00;;;;;;;;5069978;28;11522;-68
2023/01/22 13:58:32;;;;;;;;;0.00;0.00;;;;;;;;5068199;28;8807;-68
2023/01/22 14:00:57;;;;;;;;;0.00;0.00;;;;;;;;5070122;28;8767;-67
2023/01/22 14:03:24;;;;;;;;;0.00;0.00;;;;;;;;5069918;28;12194;-69
2023/01/22 14:06:00;;;;;;;;;0.00;0.00;;;;;;;;5070312;28;8783;-67
2023/01/22 14:08:25;;;;;;;;;0.00;0.00;;;;;;;;5068554;28;11450;-67
2023/01/22 14:10:57;;;;;;;;;0.00;0.00;;;;;;;;5069811;28;11464;-67
2023/01/22 14:13:23;;;;;;;;;0.00;0.00;;;;;;;;5072423;28;8802;-67
2023/01/22 14:15:55;;;;;;;;;0.00;0.00;;;;;;;;5067717;28;11475;-68
2023/01/22 14:18:21;;;;;;;;;0.00;0.00;;;;;;;;5068002;28;8821;-67
2023/01/22 14:20:46;;;;;;;;;1.75;0.00;;;;;;;;5069704;28;11409;-67
2023/01/22 14:23:12;;;;;;;;;0.00;0.00;;;;;;;;5068457;28;8802;-67
2023/01/22 14:25:39;;;;;;;;;0.00;0.00;;;;;;;;5069649;28;8814;-68
2023/01/22 14:28:04;;;;;;;;;0.00;0.00;;;;;;;;5069527;28;8790;-68
2023/01/22 14:30:29;;;;;;;;;0.00;0.00;;;;;;;;5069296;28;11451;-67
2023/01/22 14:32:54;;;;;;;;;0.00;0.00;;;;;;;;5067701;28;8822;-66
2023/01/22 14:35:21;;;;;;;;;0.00;0.00;;;;;;;;5069372;28;8832;-68
2023/01/22 14:37:47;;;;;;;;;1.00;0.00;;;;;;;;5069739;28;8778;-67
2023/01/22 14:40:13;;;;;;;;;0.00;0.00;;;;;;;;5067949;28;11493;-68
2023/01/22 14:42:38;;;;;;;;;0.00;0.00;;;;;;;;5069491;28;8795;-67
2023/01/22 14:45:04;;;;;;;;;0.00;0.00;;;;;;;;5069183;28;11574;-67
2023/01/22 14:47:29;;;;;;;;;0.75;0.00;;;;;;;;5069441;28;8798;-68
2023/01/22 14:49:55;;;;;;;;;0.00;0.00;;;;;;;;5067805;28;8920;-68
2023/01/22 14:52:20;;;;;;;;;0.00;0.00;;;;;;;;5101222;28;8910;-68
2023/01/22 14:54:45;;;;;;;;;0.00;0.00;;;;;;;;5067517;28;8818;-67
2023/01/22 14:57:11;;;;;;;;;0.00;0.00;;;;;;;;5069253;28;8825;-67
2023/01/22 14:59:36;;;;;;;;;0.00;0.00;;;;;;;;5067831;28;8803;-67
2023/01/22 15:02:02;;;;;;;;;0.00;0.00;;;;;;;;5069189;28;8799;-68
2023/01/22 15:04:27;;;;;;;;;0.75;0.00;;;;;;;;5069595;28;8810;-67
